createdAt,value
2019-04-28T00:01:31.051Z,11.23
2019-04-28T00:04:01.377Z,10.20
2019-04-28T00:06:31.557Z,12.15
2019-04-28T00:09:01.730Z,12.15
2019-04-28T00:11:31.695Z,12.25
2019-04-28T00:14:01.899Z,12.15
2019-04-28T00:16:31.304Z,12.17
2019-04-28T00:19:01.107Z,11.70
2019-04-28T00:21:33.896Z,12.07
2019-04-28T00:26:42.250Z,11.90
2019-04-28T00:29:11.232Z,12.78
2019-04-28T00:31:41.397Z,13.95
2019-04-28T00:34:11.432Z,15.40
2019-04-28T00:36:41.234Z,14.73
2019-04-28T00:39:11.119Z,15.53
2019-04-28T00:41:41.949Z,14.55
2019-04-28T00:44:11.931Z,14.85
2019-04-28T00:46:42.114Z,16.20
2019-04-28T00:49:11.811Z,15.85
2019-04-28T00:51:53.894Z,16.30
2019-04-28T00:54:18.253Z,16.02
2019-04-28T00:56:46.697Z,17.40
2019-04-28T00:59:15.113Z,15.05
2019-04-28T01:01:47.653Z,18.87
2019-04-28T01:06:43.673Z,15.63
2019-04-28T01:09:12.389Z,17.50
2019-04-28T01:11:43.283Z,16.77
2019-04-28T01:14:11.785Z,17.25
2019-04-28T01:16:41.858Z,16.90
2019-04-28T01:19:20.430Z,16.82
2019-04-28T01:22:10.242Z,17.40
2019-04-28T01:24:40.303Z,18.60
2019-04-28T01:27:15.927Z,16.95
2019-04-28T01:29:44.324Z,16.65
2019-04-28T01:32:23.428Z,18.42
2019-04-28T01:34:51.908Z,16.85
2019-04-28T01:37:20.354Z,16.50
2019-04-28T01:39:49.703Z,17.12
2019-04-28T01:42:18.083Z,17.17
2019-04-28T01:44:49.467Z,17.32
2019-04-28T01:47:17.978Z,17.47
2019-04-28T01:49:46.443Z,16.80
2019-04-28T01:52:20.550Z,16.30
2019-04-28T01:54:50.328Z,17.37
2019-04-28T01:57:21.314Z,15.58
2019-04-28T01:59:49.958Z,16.80
2019-04-28T02:02:19.942Z,14.98
2019-04-28T02:04:49.898Z,16.07
2019-04-28T02:07:20.445Z,16.55
2019-04-28T02:09:49.477Z,16.23
2019-04-28T02:12:17.986Z,16.32
2019-04-28T02:14:46.413Z,16.00
2019-04-28T02:17:15.789Z,16.77
2019-04-28T02:19:44.215Z,15.95
2019-04-28T02:22:16.740Z,16.47
2019-04-28T02:27:15.654Z,15.35
2019-04-28T02:29:49.854Z,15.23
2019-04-28T02:32:23.829Z,15.58
2019-04-28T02:34:50.730Z,15.43
2019-04-28T02:37:20.531Z,15.98
2019-04-28T02:39:50.507Z,15.95
2019-04-28T02:42:20.920Z,14.33
2019-04-28T02:44:50.489Z,15.58
2019-04-28T02:47:21.907Z,14.38
2019-04-28T02:50:08.299Z,15.25
2019-04-28T02:52:53.707Z,14.60
2019-04-28T02:55:23.126Z,15.13
2019-04-28T02:57:51.913Z,15.10
2019-04-28T03:00:21.582Z,16.25
2019-04-28T03:02:51.343Z,14.13
2019-04-28T03:05:21.676Z,14.85
2019-04-28T03:07:51.547Z,14.85
2019-04-28T03:10:21.310Z,16.20
2019-04-28T03:12:51.736Z,16.30
2019-04-28T03:15:20.603Z,15.80
2019-04-28T03:17:50.554Z,16.45
2019-04-28T03:20:21.099Z,16.85
2019-04-28T03:22:51.272Z,17.25
2019-04-28T03:25:21.440Z,16.27
2019-04-28T03:27:57.222Z,18.17
2019-04-28T03:30:37.318Z,18.48
2019-04-28T03:33:17.076Z,17.33
2019-04-28T03:35:37.501Z,17.92
2019-04-28T03:38:07.795Z,17.70
2019-04-28T03:40:41.206Z,18.52
2019-04-28T03:43:14.842Z,16.85
2019-04-28T03:45:53.709Z,16.82
2019-04-28T03:48:22.132Z,17.73
2019-04-28T03:50:51.364Z,18.32
2019-04-28T03:53:20.705Z,18.80
2019-04-28T03:55:51.369Z,17.85
2019-04-28T03:58:23.597Z,16.80
2019-04-28T04:00:51.630Z,18.00
2019-04-28T04:03:20.932Z,18.50
2019-04-28T04:05:50.855Z,17.48
2019-04-28T04:08:21.023Z,18.82
2019-04-28T04:11:10.615Z,18.70
2019-04-28T04:13:44.966Z,17.52
2019-04-28T04:16:33.079Z,18.52
2019-04-28T04:19:03.140Z,18.62
2019-04-28T04:21:31.576Z,18.20
2019-04-28T04:24:01.069Z,18.35
2019-04-28T04:26:31.014Z,18.10
2019-04-28T04:29:04.385Z,18.37
2019-04-28T04:31:32.792Z,19.17
2019-04-28T04:34:03.353Z,19.12
2019-04-28T04:36:31.427Z,18.65
2019-04-28T04:39:01.737Z,20.17
2019-04-28T04:41:30.641Z,19.02
2019-04-28T04:44:01.087Z,18.95
2019-04-28T04:46:31.428Z,20.43
2019-04-28T04:49:00.736Z,18.35
2019-04-28T04:51:30.642Z,18.15
2019-04-28T04:54:01.105Z,19.30
2019-04-28T04:56:30.183Z,18.73
2019-04-28T04:59:00.387Z,19.55
2019-04-28T05:01:30.644Z,18.95
2019-04-28T05:04:13.648Z,17.35
2019-04-28T05:06:43.052Z,18.27
2019-04-28T05:09:11.614Z,18.77
2019-04-28T05:11:40.402Z,19.30
2019-04-28T05:14:11.530Z,19.20
2019-04-28T05:16:39.999Z,20.68
2019-04-28T05:19:10.046Z,19.25
2019-04-28T05:21:40.197Z,19.17
2019-04-28T05:24:19.991Z,17.92
2019-04-28T05:26:51.401Z,18.60
2019-04-28T05:29:26.449Z,18.80
2019-04-28T05:31:50.450Z,17.77
2019-04-28T05:34:20.531Z,19.00
2019-04-28T05:36:50.522Z,18.90
2019-04-28T05:39:21.634Z,17.95
2019-04-28T05:41:50.559Z,18.85
2019-04-28T05:44:22.895Z,18.65
2019-04-28T05:49:33.216Z,16.42
2019-04-28T05:52:20.014Z,18.07
2019-04-28T05:55:12.508Z,18.25
2019-04-28T05:57:53.057Z,18.40
2019-04-28T06:00:31.808Z,17.50
2019-04-28T06:03:01.856Z,17.00
2019-04-28T06:05:31.876Z,17.52
2019-04-28T06:08:04.522Z,17.32
2019-04-28T06:10:32.930Z,17.42
2019-04-28T06:13:03.870Z,18.70
2019-04-28T06:15:32.304Z,17.75
2019-04-28T06:18:00.737Z,17.23
2019-04-28T06:20:30.353Z,17.40
2019-04-28T06:22:58.767Z,15.28
2019-04-28T06:25:27.973Z,16.48
2019-04-28T06:27:56.395Z,17.02
2019-04-28T06:30:24.819Z,15.30
2019-04-28T06:32:53.245Z,15.35
2019-04-28T06:35:21.713Z,15.68
2019-04-28T06:37:50.134Z,15.38
2019-04-28T06:40:18.600Z,15.50
2019-04-28T06:42:47.002Z,15.72
2019-04-28T06:45:15.455Z,15.00
2019-04-28T06:47:43.878Z,14.40
2019-04-28T06:50:12.650Z,14.30
2019-04-28T06:52:41.058Z,14.63
2019-04-28T06:55:09.627Z,16.00
2019-04-28T06:57:38.167Z,14.28
2019-04-28T07:00:08.305Z,14.50
2019-04-28T07:02:36.800Z,14.43
2019-04-28T07:05:06.641Z,14.85
2019-04-28T07:07:35.055Z,14.40
2019-04-28T07:10:04.517Z,14.50
2019-04-28T07:12:33.011Z,14.35
2019-04-28T07:15:01.450Z,13.70
2019-04-28T07:17:29.844Z,13.63
2019-04-28T07:19:59.880Z,14.28
2019-04-28T07:22:29.958Z,15.08
2019-04-28T07:24:58.399Z,14.43
2019-04-28T07:27:26.844Z,15.50
2019-04-28T07:29:55.258Z,15.10
2019-04-28T07:32:23.679Z,13.90
2019-04-28T07:34:52.101Z,15.93
2019-04-28T07:37:20.611Z,13.48
2019-04-28T07:39:49.009Z,14.10
2019-04-28T07:42:17.460Z,13.80
2019-04-28T07:44:46.029Z,14.07
2019-04-28T07:47:15.492Z,14.03
2019-04-28T07:49:43.994Z,13.13
2019-04-28T07:52:14.054Z,12.95
2019-04-28T07:54:42.987Z,14.13
2019-04-28T07:57:11.387Z,14.00
2019-04-28T07:59:39.949Z,13.83
2019-04-28T08:02:08.454Z,13.80
2019-04-28T08:04:37.777Z,13.30
2019-04-28T08:07:06.177Z,13.85
2019-04-28T08:09:34.600Z,13.38
2019-04-28T08:12:03.013Z,14.35
2019-04-28T08:14:31.424Z,14.20
2019-04-28T08:16:59.834Z,12.78
2019-04-28T08:19:28.242Z,12.37
2019-04-28T08:21:56.659Z,13.35
2019-04-28T08:24:25.060Z,12.65
2019-04-28T08:26:53.478Z,12.85
2019-04-28T08:29:21.861Z,13.22
2019-04-28T08:31:54.479Z,13.85
2019-04-28T08:34:23.478Z,12.93
2019-04-28T08:36:51.893Z,13.10
2019-04-28T08:39:23.425Z,13.53
2019-04-28T08:41:50.727Z,12.78
2019-04-28T08:44:19.152Z,13.78
2019-04-28T08:46:47.568Z,13.93
2019-04-28T08:49:16.009Z,13.40
2019-04-28T08:51:44.430Z,13.78
2019-04-28T08:54:12.833Z,14.07
2019-04-28T08:56:41.602Z,12.98
2019-04-28T08:59:10.019Z,13.78
2019-04-28T09:01:38.427Z,14.00
2019-04-28T09:04:15.204Z,14.07
2019-04-28T09:06:37.408Z,14.50
2019-04-28T09:09:08.035Z,14.60
2019-04-28T09:11:36.454Z,13.20
2019-04-28T09:14:04.869Z,14.03
2019-04-28T09:16:33.325Z,14.68
2019-04-28T09:19:02.250Z,14.20
2019-04-28T09:21:30.649Z,14.23
2019-04-28T09:24:00.152Z,13.22
2019-04-28T09:26:32.595Z,12.88
2019-04-28T09:29:01.010Z,13.05
2019-04-28T09:31:29.438Z,12.82
2019-04-28T09:33:57.843Z,12.55
2019-04-28T09:36:26.287Z,13.10
2019-04-28T09:38:55.068Z,13.53
2019-04-28T09:41:23.570Z,14.70
2019-04-28T09:43:53.596Z,12.78
2019-04-28T09:46:24.309Z,12.43
2019-04-28T09:48:52.736Z,13.50
2019-04-28T09:51:21.152Z,13.03
2019-04-28T09:53:49.579Z,11.93
2019-04-28T09:56:18.012Z,10.27
2019-04-28T09:58:46.424Z,8.80
2019-04-28T10:01:14.836Z,10.07
2019-04-28T10:03:43.258Z,10.25
2019-04-28T10:06:11.668Z,10.68
2019-04-28T10:08:40.177Z,10.80
2019-04-28T10:11:08.849Z,11.30
2019-04-28T10:13:37.256Z,11.12
2019-04-28T10:16:05.759Z,11.12
2019-04-28T10:18:34.166Z,10.68
2019-04-28T10:21:02.579Z,10.50
2019-04-28T10:23:33.554Z,9.10
2019-04-28T10:26:08.340Z,8.20
2019-04-28T10:28:37.779Z,9.48
2019-04-28T10:31:13.414Z,9.55
2019-04-28T10:33:43.437Z,8.88
2019-04-28T10:36:12.515Z,8.55
2019-04-28T10:38:42.553Z,8.15
2019-04-28T10:41:13.430Z,8.95
2019-04-28T10:43:41.849Z,7.83
2019-04-28T10:46:10.261Z,7.17
2019-04-28T10:48:38.689Z,8.35
2019-04-28T10:51:07.104Z,7.37
2019-04-28T10:53:35.509Z,7.65
2019-04-28T10:56:03.925Z,7.92
2019-04-28T10:58:32.340Z,6.87
2019-04-28T11:01:00.752Z,6.97
2019-04-28T11:03:29.152Z,6.70
2019-04-28T11:05:59.693Z,6.95
2019-04-28T11:08:29.832Z,5.65
2019-04-28T11:11:00.249Z,5.90
2019-04-28T11:13:28.926Z,6.58
2019-04-28T11:15:57.341Z,6.15
2019-04-28T11:18:25.840Z,5.00
2019-04-28T11:20:57.446Z,5.58
2019-04-28T11:23:25.846Z,5.40
2019-04-28T11:25:54.852Z,5.12
2019-04-28T11:28:23.276Z,5.33
2019-04-28T11:30:51.662Z,4.45
2019-04-28T11:33:21.789Z,4.92
2019-04-28T11:35:51.153Z,4.47
2019-04-28T11:38:19.610Z,4.70
2019-04-28T11:40:47.990Z,3.70
2019-04-28T11:43:16.395Z,3.52
2019-04-28T11:45:45.748Z,3.15
2019-04-28T11:48:15.097Z,3.75
2019-04-28T11:50:44.295Z,3.20
2019-04-28T11:53:15.519Z,3.10
2019-04-28T11:55:43.929Z,3.45
2019-04-28T11:58:12.334Z,3.33
2019-04-28T12:00:42.012Z,3.85
2019-04-28T12:03:10.496Z,2.95
2019-04-28T12:05:41.012Z,3.87
2019-04-28T12:08:09.588Z,3.45
2019-04-28T12:10:55.093Z,3.02
2019-04-28T12:13:25.182Z,2.05
2019-04-28T12:16:05.153Z,2.33
2019-04-28T12:18:35.243Z,3.02
2019-04-28T12:21:04.359Z,3.05
2019-04-28T12:23:32.913Z,3.42
2019-04-28T12:26:01.364Z,2.47
2019-04-28T12:28:30.287Z,2.37
2019-04-28T12:30:59.742Z,1.85
2019-04-28T12:33:28.768Z,1.85
2019-04-28T12:35:57.164Z,1.30
2019-04-28T12:38:25.588Z,1.40
2019-04-28T12:40:55.865Z,1.80
2019-04-28T12:43:24.188Z,2.72
2019-04-28T12:45:52.618Z,2.20
2019-04-28T12:48:21.051Z,1.83
2019-04-28T12:50:51.144Z,2.22
2019-04-28T12:53:19.594Z,2.30
2019-04-28T12:55:47.980Z,2.40
2019-04-28T12:58:19.065Z,2.45
2019-04-28T13:00:55.309Z,2.02
2019-04-28T13:03:25.374Z,1.70
2019-04-28T13:06:02.604Z,1.75
2019-04-28T13:08:25.583Z,1.70
2019-04-28T13:10:56.656Z,2.00
2019-04-28T13:13:25.065Z,2.30
2019-04-28T13:15:53.478Z,2.58
2019-04-28T13:18:22.964Z,2.27
2019-04-28T13:20:51.443Z,2.33
2019-04-28T13:23:19.882Z,2.70
2019-04-28T13:25:48.249Z,2.37
2019-04-28T13:28:16.678Z,1.98
2019-04-28T13:30:45.084Z,1.95
2019-04-28T13:33:14.599Z,1.75
2019-04-28T13:35:43.049Z,2.20
2019-04-28T13:38:11.413Z,1.70
2019-04-28T13:40:41.906Z,1.82
2019-04-28T13:43:12.625Z,2.02
2019-04-28T13:45:41.025Z,2.27
2019-04-28T13:48:09.439Z,2.65
2019-04-28T13:50:43.619Z,2.12
2019-04-28T13:53:11.968Z,2.17
2019-04-28T13:55:43.319Z,2.30
2019-04-28T13:58:17.864Z,2.33
2019-04-28T14:01:04.002Z,1.92
2019-04-28T14:03:44.415Z,2.40
2019-04-28T14:06:27.195Z,1.87
2019-04-28T14:08:48.298Z,2.05
2019-04-28T14:11:19.634Z,2.08
2019-04-28T14:13:49.097Z,2.33
2019-04-28T14:16:20.231Z,1.97
2019-04-28T14:18:51.385Z,1.57
2019-04-28T14:21:20.539Z,1.70
2019-04-28T14:23:51.317Z,1.32
2019-04-28T14:26:19.675Z,2.00
2019-04-28T14:28:48.079Z,1.42
2019-04-28T14:31:16.528Z,1.80
2019-04-28T14:33:45.978Z,2.08
2019-04-28T14:36:16.476Z,1.70
2019-04-28T14:38:44.599Z,2.00
2019-04-28T14:41:13.075Z,2.15
2019-04-28T14:43:41.803Z,2.12
2019-04-28T14:46:11.066Z,2.10
2019-04-28T14:48:39.431Z,2.60
2019-04-28T14:51:07.892Z,2.17
2019-04-28T14:53:36.296Z,2.33
2019-04-28T14:56:07.325Z,2.62
2019-04-28T14:58:35.146Z,2.52
2019-04-28T15:01:27.450Z,3.10
2019-04-28T15:04:00.169Z,3.08
2019-04-28T15:06:33.254Z,2.60
2019-04-28T15:09:07.311Z,2.80
2019-04-28T15:11:38.402Z,2.65
2019-04-28T15:14:06.855Z,3.20
2019-04-28T15:16:35.271Z,3.10
2019-04-28T15:19:03.907Z,3.05
2019-04-28T15:21:37.492Z,2.95
2019-04-28T15:24:08.314Z,2.90
2019-04-28T15:26:36.781Z,3.00
2019-04-28T15:29:05.267Z,2.67
2019-04-28T15:31:33.688Z,3.52
2019-04-28T15:34:06.041Z,3.25
2019-04-28T15:36:36.942Z,2.87
2019-04-28T15:39:11.763Z,2.70
2019-04-28T15:41:40.200Z,3.05
2019-04-28T15:44:08.748Z,3.22
2019-04-28T15:46:38.100Z,2.20
2019-04-28T15:49:06.541Z,2.60
2019-04-28T15:51:34.940Z,2.27
2019-04-28T15:54:03.346Z,2.55
2019-04-28T15:56:37.521Z,2.05
2019-04-28T15:59:07.734Z,1.90
2019-04-28T16:01:38.816Z,2.00
2019-04-28T16:04:08.828Z,2.05
2019-04-28T16:06:37.725Z,2.22
2019-04-28T16:09:09.513Z,1.80
2019-04-28T16:11:39.259Z,1.60
2019-04-28T16:14:14.955Z,2.00
2019-04-28T16:16:43.354Z,2.05
2019-04-28T16:19:11.819Z,2.12
2019-04-28T16:21:40.305Z,1.80
2019-04-28T16:24:12.590Z,1.77
2019-04-28T16:26:43.122Z,1.70
2019-04-28T16:29:11.533Z,2.10
2019-04-28T16:31:39.927Z,1.92
2019-04-28T16:34:10.482Z,1.72
2019-04-28T16:36:38.903Z,1.62
2019-04-28T16:39:08.055Z,1.70
2019-04-28T16:41:40.384Z,1.70
2019-04-28T16:44:13.151Z,1.80
2019-04-28T16:46:42.511Z,2.25
2019-04-28T16:49:10.911Z,1.95
2019-04-28T16:51:39.337Z,1.75
2019-04-28T16:54:07.741Z,1.90
2019-04-28T16:56:43.789Z,1.47
2019-04-28T16:59:30.311Z,1.70
2019-04-28T17:02:03.627Z,2.10
2019-04-28T17:04:37.685Z,1.95
2019-04-28T17:07:04.905Z,1.82
2019-04-28T17:09:33.330Z,2.55
2019-04-28T17:12:01.734Z,2.33
2019-04-28T17:14:30.130Z,2.22
2019-04-28T17:16:59.102Z,2.77
2019-04-28T17:19:27.665Z,3.35
2019-04-28T17:21:56.102Z,2.73
2019-04-28T17:24:24.531Z,3.20
2019-04-28T17:26:52.930Z,3.12
2019-04-28T17:29:21.331Z,3.35
2019-04-28T17:31:49.760Z,3.98
2019-04-28T17:34:21.645Z,3.00
2019-04-28T17:36:50.155Z,3.30
2019-04-28T17:39:28.542Z,3.70
2019-04-28T17:41:54.635Z,2.90
2019-04-28T17:44:23.180Z,2.40
2019-04-28T17:46:51.574Z,2.52
2019-04-28T17:49:21.617Z,2.08
2019-04-28T17:51:54.014Z,2.70
2019-04-28T17:54:22.405Z,2.75
2019-04-28T17:56:50.833Z,2.12
2019-04-28T17:59:19.276Z,2.50
2019-04-28T18:01:50.261Z,2.52
2019-04-28T18:04:35.511Z,2.20
2019-04-28T18:07:15.492Z,2.30
2019-04-28T18:09:48.334Z,2.22
2019-04-28T18:12:16.754Z,2.27
2019-04-28T18:14:46.930Z,2.30
2019-04-28T18:17:28.937Z,1.90
2019-04-28T18:20:01.704Z,2.65
2019-04-28T18:22:30.138Z,2.37
2019-04-28T18:24:58.528Z,2.20
2019-04-28T18:27:26.943Z,2.52
2019-04-28T18:29:56.366Z,2.60
2019-04-28T18:32:26.455Z,2.37
2019-04-28T18:35:11.842Z,2.33
2019-04-28T18:37:41.942Z,2.50
2019-04-28T18:40:30.866Z,3.00
2019-04-28T18:43:21.837Z,2.43
2019-04-28T18:45:50.250Z,2.60
2019-04-28T18:48:18.684Z,2.90
2019-04-28T18:50:47.091Z,3.12
2019-04-28T18:53:15.517Z,3.05
2019-04-28T18:55:43.956Z,3.08
2019-04-28T18:58:12.356Z,2.95
2019-04-28T19:00:42.749Z,3.75
2019-04-28T19:03:11.168Z,3.12
2019-04-28T19:05:45.878Z,3.25
2019-04-28T19:08:18.568Z,5.45
2019-04-28T19:10:51.411Z,33.92
2019-04-28T19:13:21.471Z,4.03
2019-04-28T19:16:12.675Z,3.25
2019-04-28T19:18:44.291Z,3.55
2019-04-28T19:21:17.407Z,3.53
2019-04-28T19:23:45.845Z,3.08
2019-04-28T19:26:14.262Z,3.87
2019-04-28T19:28:42.664Z,3.75
2019-04-28T19:31:11.061Z,3.77
2019-04-28T19:33:40.484Z,4.08
2019-04-28T19:36:10.345Z,4.72
2019-04-28T19:38:38.735Z,4.58
2019-04-28T19:41:07.166Z,4.72
2019-04-28T19:43:39.201Z,5.35
2019-04-28T19:46:09.304Z,4.78
2019-04-28T19:48:38.741Z,5.67
2019-04-28T19:51:07.179Z,5.87
2019-04-28T19:53:39.448Z,5.60
2019-04-28T19:56:18.286Z,4.35
2019-04-28T19:58:52.125Z,4.45
2019-04-28T20:01:25.599Z,4.97
2019-04-28T20:03:54.629Z,4.97
2019-04-28T20:06:23.028Z,4.60
2019-04-28T20:08:51.456Z,4.20
2019-04-28T20:11:21.982Z,4.72
2019-04-28T20:13:50.419Z,4.67
2019-04-28T20:16:18.827Z,5.37
2019-04-28T20:18:49.005Z,4.58
2019-04-28T20:21:19.723Z,4.70
2019-04-28T20:23:48.116Z,4.40
2019-04-28T20:26:20.367Z,4.90
2019-04-28T20:28:48.827Z,4.22
2019-04-28T20:31:17.258Z,4.93
2019-04-28T20:33:46.764Z,4.70
2019-04-28T20:36:25.822Z,5.23
2019-04-28T20:38:55.865Z,4.58
2019-04-28T20:41:30.266Z,5.93
2019-04-28T20:43:59.228Z,5.30
2019-04-28T20:46:27.687Z,6.07
2019-04-28T20:48:56.112Z,5.58
2019-04-28T20:51:26.566Z,5.30
2019-04-28T20:53:54.968Z,5.70
2019-04-28T20:56:26.132Z,5.33
2019-04-28T20:58:54.624Z,5.37
2019-04-28T21:01:25.760Z,5.62
2019-04-28T21:03:54.189Z,5.80
2019-04-28T21:06:26.373Z,5.50
2019-04-28T21:08:58.865Z,5.97
2019-04-28T21:13:57.441Z,5.47
2019-04-28T21:16:25.934Z,6.13
2019-04-28T21:18:58.092Z,6.47
2019-04-28T21:21:28.849Z,6.73
2019-04-28T21:23:57.272Z,6.03
2019-04-28T21:26:25.667Z,6.33
2019-04-28T21:28:54.062Z,6.65
2019-04-28T21:31:22.490Z,7.43
2019-04-28T21:33:50.901Z,6.78
2019-04-28T21:36:19.305Z,7.67
2019-04-28T21:38:49.359Z,7.28
2019-04-28T21:41:17.754Z,6.80
2019-04-28T21:43:47.820Z,7.25
2019-04-28T21:46:23.734Z,7.27
2019-04-28T21:48:53.798Z,7.33
2019-04-28T21:51:24.312Z,7.20
2019-04-28T21:53:52.724Z,8.25
2019-04-28T21:56:26.054Z,7.47
2019-04-28T21:58:57.488Z,7.10
2019-04-28T22:01:26.127Z,8.38
2019-04-28T22:03:57.125Z,8.30
2019-04-28T22:06:25.517Z,9.97
2019-04-28T22:08:56.494Z,9.35
2019-04-28T22:11:24.898Z,10.28
2019-04-28T22:13:54.448Z,9.65
2019-04-28T22:16:23.956Z,10.30
2019-04-28T22:18:52.358Z,10.55
2019-04-28T22:21:21.874Z,9.97
2019-04-28T22:23:52.008Z,9.45
2019-04-28T22:26:43.407Z,10.57
2019-04-28T22:29:17.291Z,10.30
2019-04-28T22:31:46.666Z,9.88
2019-04-28T22:34:19.577Z,9.85
2019-04-28T22:36:49.435Z,10.30
2019-04-28T22:39:17.849Z,9.40
2019-04-28T22:41:46.273Z,9.77
2019-04-28T22:44:14.763Z,9.60
2019-04-28T22:46:43.198Z,10.05
2019-04-28T22:49:11.751Z,9.58
2019-04-28T22:51:40.158Z,9.73
2019-04-28T22:54:10.212Z,9.58
2019-04-28T22:56:43.238Z,10.35
2019-04-28T22:59:16.108Z,9.95
2019-04-28T23:01:51.289Z,9.78
2019-04-28T23:04:38.468Z,11.28
2019-04-28T23:07:09.867Z,11.15
2019-04-28T23:09:44.844Z,11.38
2019-04-28T23:12:13.120Z,10.93
2019-04-28T23:14:44.985Z,10.40
2019-04-28T23:17:15.083Z,10.88
2019-04-28T23:19:45.161Z,10.10
2019-04-28T23:22:25.826Z,10.72
2019-04-28T23:24:56.793Z,10.45
2019-04-28T23:27:26.245Z,11.73
2019-04-28T23:29:58.733Z,10.78
2019-04-28T23:34:54.784Z,10.20
2019-04-28T23:37:29.741Z,10.90
2019-04-28T23:40:02.470Z,12.68
2019-04-28T23:42:35.060Z,12.78
2019-04-28T23:47:31.088Z,12.07
2019-04-28T23:49:59.506Z,13.58
2019-04-28T23:52:48.747Z,13.85
2019-04-28T23:55:19.901Z,13.55
2019-04-28T23:57:48.332Z,14.57
